Terminal Aerodrome Forecast
Issued by NWS

Home | Current Version | Previous Version | Text Only | Print | Product List | Glossary Off
Versions: 1 2 3 4 5 6 7 8 9 10 11 12 13 14 15 16 17 18 19

000
FTUS43 KBIS 252330
TAFMOT
TAF
KMOT 252330Z 2600/2624 32006KT P6SM VCSH FEW045 BKN090
     FM260200 27005KT P6SM SCT090
     FM261200 31008KT P6SM SCT140=

USA.gov is the U.S. government's official web portal to all federal, state and local government web resources and services.